createdAt,value
2023-03-06T00:00:53.497Z,-4.21
2023-03-06T00:05:57.681Z,-4.24
2023-03-06T00:10:59.976Z,-4.29
2023-03-06T00:16:02.101Z,-4.34
2023-03-06T00:21:08.064Z,-4.38
2023-03-06T00:26:10.846Z,-4.42
2023-03-06T00:31:12.961Z,-4.46
2023-03-06T00:36:15.015Z,-4.49
2023-03-06T00:41:17.019Z,-4.53
2023-03-06T00:46:18.976Z,-4.58
2023-03-06T00:51:21.986Z,-4.62
2023-03-06T00:56:24.338Z,-4.66
2023-03-06T01:01:26.273Z,-4.71
2023-03-06T01:06:28.530Z,-4.75
2023-03-06T01:11:30.972Z,-4.79
2023-03-06T01:16:33.376Z,-4.82
2023-03-06T01:21:35.335Z,-4.86
2023-03-06T01:26:37.418Z,-4.89
2023-03-06T01:31:39.659Z,-4.93
2023-03-06T01:36:41.802Z,-4.96
2023-03-06T01:41:43.845Z,-5.01
2023-03-06T01:46:46.479Z,-5.04
2023-03-06T01:51:50.922Z,-5.08
2023-03-06T01:56:57.585Z,-5.12
2023-03-06T02:07:21.208Z,-5.18
2023-03-06T02:12:24.157Z,-5.21
2023-03-06T02:17:27.088Z,-5.23
2023-03-06T02:22:43.806Z,-5.25
2023-03-06T02:27:45.963Z,-5.30
2023-03-06T02:32:47.945Z,-5.33
2023-03-06T02:37:50.269Z,-5.38
2023-03-06T02:42:58.355Z,-5.39
2023-03-06T02:48:00.357Z,-5.44
2023-03-06T02:53:02.371Z,-5.47
2023-03-06T02:58:05.259Z,-5.49
2023-03-06T03:03:08.087Z,-5.53
2023-03-06T03:08:10.260Z,-5.57
2023-03-06T03:13:12.249Z,-5.59
2023-03-06T03:18:14.194Z,-5.64
2023-03-06T03:23:16.153Z,-5.67
2023-03-06T03:28:19.220Z,-5.71
2023-03-06T03:33:21.173Z,-5.72
2023-03-06T03:38:23.190Z,-5.76
2023-03-06T03:43:25.089Z,-5.80
2023-03-06T03:48:27.018Z,-5.83
2023-03-06T03:53:29.000Z,-5.86
2023-03-06T03:58:31.095Z,-5.89
2023-03-06T04:03:33.106Z,-5.92
2023-03-06T04:08:35.869Z,-5.95
2023-03-06T04:13:37.861Z,-6.00
2023-03-06T04:18:40.016Z,-6.03
2023-03-06T04:23:41.987Z,-6.07
2023-03-06T04:28:44.029Z,-6.11
2023-03-06T04:33:46.081Z,-6.12
2023-03-06T04:38:48.065Z,-6.17
2023-03-06T04:43:50.207Z,-6.21
2023-03-06T04:48:52.194Z,-6.25
2023-03-06T04:53:54.326Z,-6.30
2023-03-06T04:58:56.382Z,-6.33
2023-03-06T05:03:58.395Z,-6.38
2023-03-06T05:09:00.373Z,-6.42
2023-03-06T05:14:02.365Z,-6.44
2023-03-06T05:19:04.428Z,-6.47
2023-03-06T05:24:06.688Z,-6.49
2023-03-06T05:29:08.685Z,-6.50
2023-03-06T05:34:14.346Z,-6.52
2023-03-06T05:39:16.547Z,-6.52
2023-03-06T05:44:18.510Z,-6.52
2023-03-06T05:49:20.518Z,-6.51
2023-03-06T05:54:24.622Z,-6.50
2023-03-06T05:59:28.805Z,-6.45
2023-03-06T06:04:30.853Z,-6.46
2023-03-06T06:09:33.056Z,-6.44
2023-03-06T06:14:35.243Z,-6.40
2023-03-06T06:19:37.259Z,-6.37
2023-03-06T06:24:39.444Z,-6.33
2023-03-06T06:29:41.507Z,-6.30
2023-03-06T06:34:43.557Z,-6.24
2023-03-06T06:39:45.573Z,-6.19
2023-03-06T06:44:47.690Z,-6.14
2023-03-06T06:49:54.466Z,-6.04
2023-03-06T06:54:56.715Z,-5.95
2023-03-06T06:59:58.898Z,-5.85
2023-03-06T07:05:04.720Z,-5.75
2023-03-06T07:10:12.559Z,-5.65
2023-03-06T07:15:16.055Z,-5.55
2023-03-06T07:20:18.206Z,-5.45
2023-03-06T07:25:21.026Z,-5.38
2023-03-06T07:30:24.389Z,-5.26
2023-03-06T07:35:26.720Z,-5.18
2023-03-06T07:40:28.875Z,-5.08
2023-03-06T07:45:30.945Z,-4.99
2023-03-06T07:50:33.663Z,-4.90
2023-03-06T07:55:35.635Z,-4.80
2023-03-06T08:00:37.596Z,-4.70
2023-03-06T08:05:40.002Z,-4.58
2023-03-06T08:10:48.230Z,-4.46
2023-03-06T08:15:50.239Z,-4.35
2023-03-06T08:21:08.334Z,-4.23
2023-03-06T08:26:16.421Z,-4.12
2023-03-06T08:31:37.225Z,-3.99
2023-03-06T08:36:39.298Z,-3.87
2023-03-06T08:41:42.561Z,-3.74
2023-03-06T08:46:44.408Z,-3.60
2023-03-06T08:51:46.448Z,-3.48
2023-03-06T08:56:48.545Z,-3.37
2023-03-06T09:01:50.545Z,-3.24
2023-03-06T09:06:54.502Z,-3.13
2023-03-06T09:11:57.534Z,-3.00
2023-03-06T09:16:59.767Z,-2.89
2023-03-06T09:22:01.879Z,-2.77
2023-03-06T09:27:04.011Z,-2.67
2023-03-06T09:32:06.518Z,-2.57
2023-03-06T09:37:08.569Z,-2.48
2023-03-06T09:42:17.744Z,-2.36
2023-03-06T09:47:28.953Z,-2.25
2023-03-06T09:52:41.368Z,-2.15
2023-03-06T09:57:56.318Z,-2.05
2023-03-06T10:03:16.288Z,-1.93
2023-03-06T10:08:36.755Z,-1.83
2023-03-06T10:13:46.291Z,-1.73
2023-03-06T10:18:48.419Z,-1.62
2023-03-06T10:24:10.742Z,-1.51
2023-03-06T10:29:12.704Z,-1.44
2023-03-06T10:34:24.717Z,-1.34
2023-03-06T10:39:28.709Z,-1.24
2023-03-06T10:44:30.939Z,-1.14
2023-03-06T10:49:36.524Z,-1.06
2023-03-06T10:54:41.912Z,-0.96
2023-03-06T10:59:55.694Z,-0.87
2023-03-06T11:05:00.219Z,-0.81
2023-03-06T11:10:19.361Z,-0.73
2023-03-06T11:15:24.637Z,-0.64
2023-03-06T11:20:49.985Z,-0.59
2023-03-06T11:25:57.291Z,-0.52
2023-03-06T11:31:08.517Z,-0.47
2023-03-06T11:36:16.605Z,-0.43
2023-03-06T11:41:38.724Z,-0.37
2023-03-06T11:46:49.987Z,-0.34
2023-03-06T11:51:56.378Z,-0.28
2023-03-06T11:57:02.645Z,-0.25
2023-03-06T12:02:15.268Z,-0.20
2023-03-06T12:07:28.214Z,-0.17
2023-03-06T12:12:48.646Z,-0.13
2023-03-06T12:18:01.662Z,-0.10
2023-03-06T12:23:40.972Z,-0.05
2023-03-06T12:29:01.052Z,-0.02
2023-03-06T12:34:38.420Z,0.01
2023-03-06T12:40:22.391Z,0.04
2023-03-06T12:45:33.682Z,0.08
2023-03-06T12:50:37.502Z,0.11
2023-03-06T12:55:50.144Z,0.14
2023-03-06T13:01:04.751Z,0.16
2023-03-06T13:06:21.748Z,0.19
2023-03-06T13:11:34.860Z,0.21
2023-03-06T13:16:36.986Z,0.24
2023-03-06T13:21:41.888Z,0.26
2023-03-06T13:26:43.860Z,0.27
2023-03-06T13:31:45.997Z,0.31
2023-03-06T13:36:48.204Z,0.33
2023-03-06T13:41:54.374Z,0.35
2023-03-06T13:47:18.037Z,0.37
2023-03-06T13:52:34.134Z,0.38
2023-03-06T13:57:51.316Z,0.39
2023-03-06T14:02:58.293Z,0.41
2023-03-06T14:08:23.356Z,0.42
2023-03-06T14:13:41.859Z,0.46
2023-03-06T14:18:51.678Z,0.48
2023-03-06T14:24:20.620Z,0.48
2023-03-06T14:29:25.561Z,0.51
2023-03-06T14:34:33.314Z,0.53
2023-03-06T14:39:41.856Z,0.56
2023-03-06T14:44:44.138Z,0.59
2023-03-06T14:49:46.114Z,0.61
2023-03-06T14:54:49.166Z,0.64
2023-03-06T14:59:56.763Z,0.64
2023-03-06T15:05:11.918Z,0.65
2023-03-06T15:10:26.407Z,0.67
2023-03-06T15:15:31.364Z,0.68
2023-03-06T15:20:39.003Z,0.70
2023-03-06T15:25:41.113Z,0.69
2023-03-06T15:30:43.289Z,0.70
2023-03-06T15:36:03.173Z,0.69
2023-03-06T15:41:19.971Z,0.68
2023-03-06T15:46:22.094Z,0.68
2023-03-06T15:51:24.628Z,0.68
2023-03-06T15:56:33.803Z,0.67
2023-03-06T16:01:37.412Z,0.66
2023-03-06T16:06:39.844Z,0.65
2023-03-06T16:11:45.414Z,0.63
2023-03-06T16:16:49.683Z,0.62
2023-03-06T16:21:52.172Z,0.59
2023-03-06T16:26:55.316Z,0.59
2023-03-06T16:31:59.634Z,0.57
2023-03-06T16:37:02.507Z,0.55
2023-03-06T16:42:05.027Z,0.51
2023-03-06T16:47:11.928Z,0.49
2023-03-06T16:52:14.907Z,0.46
2023-03-06T16:57:18.886Z,0.44
2023-03-06T17:02:21.652Z,0.40
2023-03-06T17:07:24.548Z,0.40
2023-03-06T17:12:26.912Z,0.39
2023-03-06T17:17:29.372Z,0.36
2023-03-06T17:22:34.652Z,0.35
2023-03-06T17:27:38.520Z,0.32
2023-03-06T17:32:41.452Z,0.29
2023-03-06T17:37:43.862Z,0.26
2023-03-06T17:42:48.012Z,0.25
2023-03-06T17:47:54.711Z,0.22
2023-03-06T17:52:57.483Z,0.20
2023-03-06T17:57:59.902Z,0.16
2023-03-06T18:03:03.011Z,0.16
2023-03-06T18:08:09.139Z,0.13
2023-03-06T18:13:12.265Z,0.10
2023-03-06T18:18:16.077Z,0.08
2023-03-06T18:23:19.996Z,0.06
2023-03-06T18:28:23.146Z,0.03
2023-03-06T18:33:26.290Z,-0.01
2023-03-06T18:38:29.354Z,-0.03
2023-03-06T18:43:31.899Z,-0.05
2023-03-06T18:48:35.277Z,-0.07
2023-03-06T18:53:42.210Z,-0.09
2023-03-06T18:58:46.680Z,-0.12
2023-03-06T19:03:50.206Z,-0.15
2023-03-06T19:08:57.168Z,-0.19
2023-03-06T19:14:01.063Z,-0.21
2023-03-06T19:19:04.273Z,-0.25
2023-03-06T19:24:08.338Z,-0.27
2023-03-06T19:29:11.674Z,-0.31
2023-03-06T19:34:16.311Z,-0.34
2023-03-06T19:39:21.817Z,-0.38
2023-03-06T19:44:25.179Z,-0.43
2023-03-06T19:49:29.681Z,-0.48
2023-03-06T19:54:32.716Z,-0.51
2023-03-06T19:59:35.770Z,-0.57
2023-03-06T20:04:39.210Z,-0.63
2023-03-06T20:09:42.351Z,-0.69
2023-03-06T20:14:47.034Z,-0.75
2023-03-06T20:19:50.084Z,-0.81
2023-03-06T20:24:53.492Z,-0.87
2023-03-06T20:29:56.734Z,-0.93
2023-03-06T20:35:00.002Z,-1.01
2023-03-06T20:40:02.751Z,-1.08
2023-03-06T20:45:09.926Z,-1.14
2023-03-06T20:50:16.428Z,-1.21
2023-03-06T20:55:19.061Z,-1.29
2023-03-06T21:00:22.252Z,-1.37
2023-03-06T21:05:25.390Z,-1.45
2023-03-06T21:10:28.209Z,-1.53
2023-03-06T21:15:31.602Z,-1.59
2023-03-06T21:20:34.715Z,-1.67
2023-03-06T21:25:37.035Z,-1.75
2023-03-06T21:30:39.611Z,-1.81
2023-03-06T21:35:43.182Z,-1.88
2023-03-06T21:40:45.779Z,-1.95
2023-03-06T21:45:49.377Z,-2.00
2023-03-06T21:50:51.466Z,-2.10
2023-03-06T21:55:53.451Z,-2.16
2023-03-06T22:00:55.614Z,-2.21
2023-03-06T22:06:08.162Z,-2.27
2023-03-06T22:11:13.336Z,-2.34
2023-03-06T22:16:16.041Z,-2.40
2023-03-06T22:21:21.106Z,-2.47
2023-03-06T22:26:23.475Z,-2.54
2023-03-06T22:31:28.803Z,-2.60
2023-03-06T22:36:31.828Z,-2.68
2023-03-06T22:41:33.847Z,-2.75
2023-03-06T22:46:35.930Z,-2.80
2023-03-06T22:51:38.342Z,-2.88
2023-03-06T22:56:40.395Z,-2.96
2023-03-06T23:01:43.543Z,-3.04
2023-03-06T23:06:47.196Z,-3.11
2023-03-06T23:11:50.043Z,-3.18
2023-03-06T23:16:52.054Z,-3.26
2023-03-06T23:21:54.053Z,-3.32
2023-03-06T23:26:56.087Z,-3.41
2023-03-06T23:31:58.047Z,-3.48
2023-03-06T23:37:00.131Z,-3.55
2023-03-06T23:42:02.128Z,-3.63
2023-03-06T23:47:04.167Z,-3.69
2023-03-06T23:52:06.205Z,-3.76
2023-03-06T23:57:08.165Z,-3.83
